sensor_id;sensor_type;location;lat;lon;timestamp;temperature;humidity
51305;HTU21D;37392;50.964;6.952;2023-05-07T00:01:32;14.72;115.67
51305;HTU21D;37392;50.964;6.952;2023-05-07T00:03:58;14.75;115.12
51305;HTU21D;37392;50.964;6.952;2023-05-07T00:06:23;14.73;114.99
51305;HTU21D;37392;50.964;6.952;2023-05-07T00:08:49;14.73;115.13
51305;HTU21D;37392;50.964;6.952;2023-05-07T00:11:14;14.72;114.84
51305;HTU21D;37392;50.964;6.952;2023-05-07T00:13:40;14.74;114.99
51305;HTU21D;37392;50.964;6.952;2023-05-07T00:16:05;14.71;115.16
51305;HTU21D;37392;50.964;6.952;2023-05-07T00:18:31;14.70;115.26
51305;HTU21D;37392;50.964;6.952;2023-05-07T00:20:56;14.69;115.39
51305;HTU21D;37392;50.964;6.952;2023-05-07T00:23:22;14.68;115.48
51305;HTU21D;37392;50.964;6.952;2023-05-07T00:25:48;14.67;115.95
51305;HTU21D;37392;50.964;6.952;2023-05-07T00:28:13;14.67;115.99
51305;HTU21D;37392;50.964;6.952;2023-05-07T00:30:39;14.66;116.06
51305;HTU21D;37392;50.964;6.952;2023-05-07T00:33:04;14.66;115.73
51305;HTU21D;37392;50.964;6.952;2023-05-07T00:35:30;14.63;115.76
51305;HTU21D;37392;50.964;6.952;2023-05-07T00:37:56;14.66;115.59
51305;HTU21D;37392;50.964;6.952;2023-05-07T00:40:21;14.65;115.46
51305;HTU21D;37392;50.964;6.952;2023-05-07T00:42:47;14.64;115.16
51305;HTU21D;37392;50.964;6.952;2023-05-07T00:45:14;14.64;115.21
51305;HTU21D;37392;50.964;6.952;2023-05-07T00:47:40;14.65;114.95
51305;HTU21D;37392;50.964;6.952;2023-05-07T00:50:06;14.66;114.80
51305;HTU21D;37392;50.964;6.952;2023-05-07T00:52:32;14.67;114.76
51305;HTU21D;37392;50.964;6.952;2023-05-07T00:54:58;14.66;114.62
51305;HTU21D;37392;50.964;6.952;2023-05-07T00:57:26;14.68;114.48
51305;HTU21D;37392;50.964;6.952;2023-05-07T00:59:52;14.67;114.27
51305;HTU21D;37392;50.964;6.952;2023-05-07T01:02:17;14.67;114.17
51305;HTU21D;37392;50.964;6.952;2023-05-07T01:04:42;14.66;114.11
51305;HTU21D;37392;50.964;6.952;2023-05-07T01:07:08;14.63;114.28
51305;HTU21D;37392;50.964;6.952;2023-05-07T01:09:34;14.63;114.02
51305;HTU21D;37392;50.964;6.952;2023-05-07T01:12:00;14.63;113.60
51305;HTU21D;37392;50.964;6.952;2023-05-07T01:14:25;14.58;113.74
51305;HTU21D;37392;50.964;6.952;2023-05-07T01:16:51;14.60;113.75
51305;HTU21D;37392;50.964;6.952;2023-05-07T01:19:18;14.58;114.00
51305;HTU21D;37392;50.964;6.952;2023-05-07T01:21:48;14.55;113.80
51305;HTU21D;37392;50.964;6.952;2023-05-07T01:24:14;14.56;113.31
51305;HTU21D;37392;50.964;6.952;2023-05-07T01:26:40;14.58;112.80
51305;HTU21D;37392;50.964;6.952;2023-05-07T01:29:07;14.63;111.97
51305;HTU21D;37392;50.964;6.952;2023-05-07T01:31:33;14.59;112.31
51305;HTU21D;37392;50.964;6.952;2023-05-07T01:33:59;14.60;111.91
51305;HTU21D;37392;50.964;6.952;2023-05-07T01:36:26;14.57;111.63
51305;HTU21D;37392;50.964;6.952;2023-05-07T01:38:53;14.54;112.03
51305;HTU21D;37392;50.964;6.952;2023-05-07T01:41:19;14.55;111.88
51305;HTU21D;37392;50.964;6.952;2023-05-07T01:43:44;14.56;111.26
51305;HTU21D;37392;50.964;6.952;2023-05-07T01:46:10;14.55;111.25
51305;HTU21D;37392;50.964;6.952;2023-05-07T01:48:37;14.55;111.30
51305;HTU21D;37392;50.964;6.952;2023-05-07T01:51:02;14.54;111.36
51305;HTU21D;37392;50.964;6.952;2023-05-07T01:53:28;14.56;110.81
51305;HTU21D;37392;50.964;6.952;2023-05-07T01:55:53;14.58;110.39
51305;HTU21D;37392;50.964;6.952;2023-05-07T01:58:19;14.53;110.70
51305;HTU21D;37392;50.964;6.952;2023-05-07T02:00:44;14.51;110.91
51305;HTU21D;37392;50.964;6.952;2023-05-07T02:03:10;14.47;111.07
51305;HTU21D;37392;50.964;6.952;2023-05-07T02:05:35;14.41;111.29
51305;HTU21D;37392;50.964;6.952;2023-05-07T02:08:01;14.42;111.39
51305;HTU21D;37392;50.964;6.952;2023-05-07T02:10:26;14.37;111.32
51305;HTU21D;37392;50.964;6.952;2023-05-07T02:12:52;14.33;111.55
51305;HTU21D;37392;50.964;6.952;2023-05-07T02:15:17;14.27;111.71
51305;HTU21D;37392;50.964;6.952;2023-05-07T02:18:02;14.21;111.87
51305;HTU21D;37392;50.964;6.952;2023-05-07T02:20:28;14.13;112.41
51305;HTU21D;37392;50.964;6.952;2023-05-07T02:22:54;14.07;112.88
51305;HTU21D;37392;50.964;6.952;2023-05-07T02:25:19;13.99;113.44
51305;HTU21D;37392;50.964;6.952;2023-05-07T02:27:45;13.92;113.89
51305;HTU21D;37392;50.964;6.952;2023-05-07T02:30:10;13.89;114.24
51305;HTU21D;37392;50.964;6.952;2023-05-07T02:32:36;13.86;114.56
51305;HTU21D;37392;50.964;6.952;2023-05-07T02:35:01;13.88;114.57
51305;HTU21D;37392;50.964;6.952;2023-05-07T02:37:27;13.82;114.95
51305;HTU21D;37392;50.964;6.952;2023-05-07T02:39:52;13.79;115.25
51305;HTU21D;37392;50.964;6.952;2023-05-07T02:42:18;13.78;115.70
51305;HTU21D;37392;50.964;6.952;2023-05-07T02:44:43;13.77;116.09
51305;HTU21D;37392;50.964;6.952;2023-05-07T02:47:09;13.75;116.28
51305;HTU21D;37392;50.964;6.952;2023-05-07T02:49:35;13.81;116.20
51305;HTU21D;37392;50.964;6.952;2023-05-07T02:52:00;13.81;116.17
51305;HTU21D;37392;50.964;6.952;2023-05-07T02:54:26;13.83;116.25
51305;HTU21D;37392;50.964;6.952;2023-05-07T02:56:51;13.84;116.23
51305;HTU21D;37392;50.964;6.952;2023-05-07T02:59:17;13.83;116.26
51305;HTU21D;37392;50.964;6.952;2023-05-07T03:01:42;13.90;115.83
51305;HTU21D;37392;50.964;6.952;2023-05-07T03:04:10;13.90;115.86
51305;HTU21D;37392;50.964;6.952;2023-05-07T03:06:36;13.92;115.70
51305;HTU21D;37392;50.964;6.952;2023-05-07T03:09:01;13.93;115.35
51305;HTU21D;37392;50.964;6.952;2023-05-07T03:11:27;13.92;115.01
51305;HTU21D;37392;50.964;6.952;2023-05-07T03:13:52;13.92;114.86
51305;HTU21D;37392;50.964;6.952;2023-05-07T03:16:18;13.95;114.51
51305;HTU21D;37392;50.964;6.952;2023-05-07T03:18:43;13.92;114.47
51305;HTU21D;37392;50.964;6.952;2023-05-07T03:21:09;13.91;114.63
51305;HTU21D;37392;50.964;6.952;2023-05-07T03:23:34;13.86;114.56
51305;HTU21D;37392;50.964;6.952;2023-05-07T03:26:00;13.85;114.34
51305;HTU21D;37392;50.964;6.952;2023-05-07T03:28:25;13.82;114.07
51305;HTU21D;37392;50.964;6.952;2023-05-07T03:30:50;13.70;114.39
51305;HTU21D;37392;50.964;6.952;2023-05-07T03:33:16;13.65;114.92
51305;HTU21D;37392;50.964;6.952;2023-05-07T03:35:41;13.58;115.35
51305;HTU21D;37392;50.964;6.952;2023-05-07T03:38:07;13.49;115.72
51305;HTU21D;37392;50.964;6.952;2023-05-07T03:40:32;13.44;116.28
51305;HTU21D;37392;50.964;6.952;2023-05-07T03:42:59;13.44;116.63
51305;HTU21D;37392;50.964;6.952;2023-05-07T03:45:25;13.46;116.59
51305;HTU21D;37392;50.964;6.952;2023-05-07T03:47:50;13.46;116.41
51305;HTU21D;37392;50.964;6.952;2023-05-07T03:50:16;13.46;116.43
51305;HTU21D;37392;50.964;6.952;2023-05-07T03:52:41;13.47;116.12
51305;HTU21D;37392;50.964;6.952;2023-05-07T03:55:07;13.44;116.37
51305;HTU21D;37392;50.964;6.952;2023-05-07T03:57:33;13.38;116.53
51305;HTU21D;37392;50.964;6.952;2023-05-07T03:59:58;13.35;117.03
51305;HTU21D;37392;50.964;6.952;2023-05-07T04:02:24;13.31;117.27
51305;HTU21D;37392;50.964;6.952;2023-05-07T04:04:49;13.30;117.82
51305;HTU21D;37392;50.964;6.952;2023-05-07T04:07:15;13.30;118.07
51305;HTU21D;37392;50.964;6.952;2023-05-07T04:09:40;13.34;118.38
51305;HTU21D;37392;50.964;6.952;2023-05-07T04:12:06;13.43;118.38
51305;HTU21D;37392;50.964;6.952;2023-05-07T04:14:31;13.56;117.74
51305;HTU21D;37392;50.964;6.952;2023-05-07T04:16:58;13.66;117.64
51305;HTU21D;37392;50.964;6.952;2023-05-07T04:19:24;13.80;116.38
51305;HTU21D;37392;50.964;6.952;2023-05-07T04:21:50;13.96;115.84
51305;HTU21D;37392;50.964;6.952;2023-05-07T04:24:15;14.06;114.41
51305;HTU21D;37392;50.964;6.952;2023-05-07T04:26:41;14.12;113.62
51305;HTU21D;37392;50.964;6.952;2023-05-07T04:29:06;14.19;113.14
51305;HTU21D;37392;50.964;6.952;2023-05-07T04:31:32;14.24;112.66
51305;HTU21D;37392;50.964;6.952;2023-05-07T04:33:57;14.32;112.52
51305;HTU21D;37392;50.964;6.952;2023-05-07T04:36:23;14.38;112.16
51305;HTU21D;37392;50.964;6.952;2023-05-07T04:38:52;14.49;111.78
51305;HTU21D;37392;50.964;6.952;2023-05-07T04:41:19;14.66;111.57
51305;HTU21D;37392;50.964;6.952;2023-05-07T04:43:44;14.84;110.19
51305;HTU21D;37392;50.964;6.952;2023-05-07T04:46:10;14.98;109.20
51305;HTU21D;37392;50.964;6.952;2023-05-07T04:48:36;14.99;107.75
51305;HTU21D;37392;50.964;6.952;2023-05-07T04:51:01;15.06;107.87
51305;HTU21D;37392;50.964;6.952;2023-05-07T04:53:27;15.08;107.98
51305;HTU21D;37392;50.964;6.952;2023-05-07T04:55:56;15.09;107.93
51305;HTU21D;37392;50.964;6.952;2023-05-07T04:58:24;15.16;107.49
51305;HTU21D;37392;50.964;6.952;2023-05-07T05:00:50;15.22;107.61
51305;HTU21D;37392;50.964;6.952;2023-05-07T05:03:15;15.34;107.16
51305;HTU21D;37392;50.964;6.952;2023-05-07T05:05:41;15.46;106.00
51305;HTU21D;37392;50.964;6.952;2023-05-07T05:08:06;15.66;104.67
51305;HTU21D;37392;50.964;6.952;2023-05-07T05:10:32;15.78;104.36
51305;HTU21D;37392;50.964;6.952;2023-05-07T05:12:57;15.83;103.45
51305;HTU21D;37392;50.964;6.952;2023-05-07T05:15:23;15.75;103.04
51305;HTU21D;37392;50.964;6.952;2023-05-07T05:17:48;15.71;103.19
51305;HTU21D;37392;50.964;6.952;2023-05-07T05:20:14;15.77;102.50
51305;HTU21D;37392;50.964;6.952;2023-05-07T05:22:40;15.76;102.89
51305;HTU21D;37392;50.964;6.952;2023-05-07T05:25:06;15.82;102.44
51305;HTU21D;37392;50.964;6.952;2023-05-07T05:27:32;15.89;101.68
51305;HTU21D;37392;50.964;6.952;2023-05-07T05:29:57;15.96;101.77
51305;HTU21D;37392;50.964;6.952;2023-05-07T05:32:23;16.03;101.06
51305;HTU21D;37392;50.964;6.952;2023-05-07T05:34:48;15.97;100.68
51305;HTU21D;37392;50.964;6.952;2023-05-07T05:37:14;15.98;100.91
51305;HTU21D;37392;50.964;6.952;2023-05-07T05:39:39;15.99;101.40
51305;HTU21D;37392;50.964;6.952;2023-05-07T05:42:05;15.98;100.79
51305;HTU21D;37392;50.964;6.952;2023-05-07T05:44:30;16.00;100.60
51305;HTU21D;37392;50.964;6.952;2023-05-07T05:46:56;16.01;100.86
51305;HTU21D;37392;50.964;6.952;2023-05-07T05:49:24;16.08;100.41
51305;HTU21D;37392;50.964;6.952;2023-05-07T05:51:50;16.13;100.46
51305;HTU21D;37392;50.964;6.952;2023-05-07T05:54:15;16.19;99.72
51305;HTU21D;37392;50.964;6.952;2023-05-07T05:56:41;16.27;99.58
51305;HTU21D;37392;50.964;6.952;2023-05-07T05:59:07;16.31;99.87
51305;HTU21D;37392;50.964;6.952;2023-05-07T06:01:32;16.39;98.90
51305;HTU21D;37392;50.964;6.952;2023-05-07T06:03:58;16.50;98.55
51305;HTU21D;37392;50.964;6.952;2023-05-07T06:06:23;16.58;98.03
51305;HTU21D;37392;50.964;6.952;2023-05-07T06:08:49;16.70;98.30
51305;HTU21D;37392;50.964;6.952;2023-05-07T06:11:14;16.90;97.23
51305;HTU21D;37392;50.964;6.952;2023-05-07T06:13:40;17.13;96.30
51305;HTU21D;37392;50.964;6.952;2023-05-07T06:16:06;17.22;94.72
51305;HTU21D;37392;50.964;6.952;2023-05-07T06:18:31;17.31;94.42
51305;HTU21D;37392;50.964;6.952;2023-05-07T06:20:57;17.40;92.98
51305;HTU21D;37392;50.964;6.952;2023-05-07T06:23:22;17.56;92.99
51305;HTU21D;37392;50.964;6.952;2023-05-07T06:25:48;17.76;91.34
51305;HTU21D;37392;50.964;6.952;2023-05-07T06:28:15;17.90;90.91
51305;HTU21D;37392;50.964;6.952;2023-05-07T06:30:40;18.05;90.38
51305;HTU21D;37392;50.964;6.952;2023-05-07T06:33:05;18.36;88.52
51305;HTU21D;37392;50.964;6.952;2023-05-07T06:35:31;18.36;87.70
51305;HTU21D;37392;50.964;6.952;2023-05-07T06:37:56;18.29;87.94
51305;HTU21D;37392;50.964;6.952;2023-05-07T06:40:22;18.50;87.80
51305;HTU21D;37392;50.964;6.952;2023-05-07T06:42:47;18.64;86.13
51305;HTU21D;37392;50.964;6.952;2023-05-07T06:45:13;18.71;86.22
51305;HTU21D;37392;50.964;6.952;2023-05-07T06:47:38;18.93;85.47
51305;HTU21D;37392;50.964;6.952;2023-05-07T06:50:04;19.17;85.49
51305;HTU21D;37392;50.964;6.952;2023-05-07T06:52:29;19.46;83.36
51305;HTU21D;37392;50.964;6.952;2023-05-07T06:54:55;19.87;82.45
51305;HTU21D;37392;50.964;6.952;2023-05-07T06:57:20;20.54;80.15
51305;HTU21D;37392;50.964;6.952;2023-05-07T06:59:46;20.74;79.13
51305;HTU21D;37392;50.964;6.952;2023-05-07T07:02:11;21.28;77.08
51305;HTU21D;37392;50.964;6.952;2023-05-07T07:04:37;21.30;76.36
51305;HTU21D;37392;50.964;6.952;2023-05-07T07:07:02;21.87;73.90
51305;HTU21D;37392;50.964;6.952;2023-05-07T07:09:27;22.34;73.34
51305;HTU21D;37392;50.964;6.952;2023-05-07T07:11:53;22.93;70.77
51305;HTU21D;37392;50.964;6.952;2023-05-07T07:14:18;23.37;69.14
51305;HTU21D;37392;50.964;6.952;2023-05-07T07:16:44;23.61;68.34
51305;HTU21D;37392;50.964;6.952;2023-05-07T07:19:09;23.60;67.06
51305;HTU21D;37392;50.964;6.952;2023-05-07T07:21:35;24.03;66.03
51305;HTU21D;37392;50.964;6.952;2023-05-07T07:24:00;23.96;64.70
51305;HTU21D;37392;50.964;6.952;2023-05-07T07:26:26;24.55;63.51
51305;HTU21D;37392;50.964;6.952;2023-05-07T07:28:51;25.21;61.99
51305;HTU21D;37392;50.964;6.952;2023-05-07T07:31:16;25.49;61.11
51305;HTU21D;37392;50.964;6.952;2023-05-07T07:33:42;25.94;60.22
51305;HTU21D;37392;50.964;6.952;2023-05-07T07:36:07;26.34;58.54
51305;HTU21D;37392;50.964;6.952;2023-05-07T07:38:33;25.66;60.03
51305;HTU21D;37392;50.964;6.952;2023-05-07T07:40:59;25.24;61.40
51305;HTU21D;37392;50.964;6.952;2023-05-07T07:43:25;25.23;61.28
51305;HTU21D;37392;50.964;6.952;2023-05-07T07:45:50;25.80;60.35
51305;HTU21D;37392;50.964;6.952;2023-05-07T07:48:16;26.26;59.12
51305;HTU21D;37392;50.964;6.952;2023-05-07T07:50:41;26.57;58.25
51305;HTU21D;37392;50.964;6.952;2023-05-07T07:53:07;27.10;57.41
51305;HTU21D;37392;50.964;6.952;2023-05-07T07:55:34;27.21;56.67
51305;HTU21D;37392;50.964;6.952;2023-05-07T07:58:03;25.99;58.10
51305;HTU21D;37392;50.964;6.952;2023-05-07T08:00:28;25.50;59.69
51305;HTU21D;37392;50.964;6.952;2023-05-07T08:02:54;24.92;60.74
51305;HTU21D;37392;50.964;6.952;2023-05-07T08:05:19;24.89;61.76
51305;HTU21D;37392;50.964;6.952;2023-05-07T08:07:45;24.93;61.56
51305;HTU21D;37392;50.964;6.952;2023-05-07T08:10:13;24.99;61.71
51305;HTU21D;37392;50.964;6.952;2023-05-07T08:12:45;25.03;61.44
51305;HTU21D;37392;50.964;6.952;2023-05-07T08:15:11;24.88;61.97
51305;HTU21D;37392;50.964;6.952;2023-05-07T08:17:36;24.64;61.97
51305;HTU21D;37392;50.964;6.952;2023-05-07T08:20:02;24.73;62.30
51305;HTU21D;37392;50.964;6.952;2023-05-07T08:22:27;24.66;62.18
51305;HTU21D;37392;50.964;6.952;2023-05-07T08:24:53;24.39;63.21
51305;HTU21D;37392;50.964;6.952;2023-05-07T08:27:18;24.06;63.63
51305;HTU21D;37392;50.964;6.952;2023-05-07T08:29:44;24.23;63.80
51305;HTU21D;37392;50.964;6.952;2023-05-07T08:32:12;24.19;63.37
51305;HTU21D;37392;50.964;6.952;2023-05-07T08:34:37;24.24;63.63
51305;HTU21D;37392;50.964;6.952;2023-05-07T08:37:04;24.20;63.44
51305;HTU21D;37392;50.964;6.952;2023-05-07T08:39:29;24.30;63.68
51305;HTU21D;37392;50.964;6.952;2023-05-07T08:41:55;24.24;63.47
51305;HTU21D;37392;50.964;6.952;2023-05-07T08:44:23;24.66;62.89
51305;HTU21D;37392;50.964;6.952;2023-05-07T08:46:52;24.73;62.19
51305;HTU21D;37392;50.964;6.952;2023-05-07T08:49:19;25.04;62.01
51305;HTU21D;37392;50.964;6.952;2023-05-07T08:51:45;25.07;61.34
51305;HTU21D;37392;50.964;6.952;2023-05-07T08:54:11;25.52;60.62
51305;HTU21D;37392;50.964;6.952;2023-05-07T08:56:41;26.13;59.25
51305;HTU21D;37392;50.964;6.952;2023-05-07T08:59:06;26.57;57.49
51305;HTU21D;37392;50.964;6.952;2023-05-07T09:01:32;26.84;56.66
51305;HTU21D;37392;50.964;6.952;2023-05-07T09:03:57;27.59;55.11
51305;HTU21D;37392;50.964;6.952;2023-05-07T09:06:23;27.96;54.21
51305;HTU21D;37392;50.964;6.952;2023-05-07T09:08:49;27.99;53.51
51305;HTU21D;37392;50.964;6.952;2023-05-07T09:11:16;27.57;54.44
51305;HTU21D;37392;50.964;6.952;2023-05-07T09:13:44;27.56;54.60
51305;HTU21D;37392;50.964;6.952;2023-05-07T09:16:10;27.75;53.98
51305;HTU21D;37392;50.964;6.952;2023-05-07T09:18:40;27.57;54.49
51305;HTU21D;37392;50.964;6.952;2023-05-07T09:21:15;27.49;54.88
51305;HTU21D;37392;50.964;6.952;2023-05-07T09:23:41;27.67;54.00
51305;HTU21D;37392;50.964;6.952;2023-05-07T09:26:07;28.26;52.63
51305;HTU21D;37392;50.964;6.952;2023-05-07T09:28:39;28.57;51.56
51305;HTU21D;37392;50.964;6.952;2023-05-07T09:31:07;29.64;49.69
51305;HTU21D;37392;50.964;6.952;2023-05-07T09:33:33;30.89;47.26
51305;HTU21D;37392;50.964;6.952;2023-05-07T09:36:03;31.90;45.73
51305;HTU21D;37392;50.964;6.952;2023-05-07T09:38:30;32.66;43.73
51305;HTU21D;37392;50.964;6.952;2023-05-07T09:41:03;32.60;43.72
51305;HTU21D;37392;50.964;6.952;2023-05-07T09:43:36;32.81;42.62
51305;HTU21D;37392;50.964;6.952;2023-05-07T09:46:46;32.86;42.63
51305;HTU21D;37392;50.964;6.952;2023-05-07T09:48:53;33.65;41.40
51305;HTU21D;37392;50.964;6.952;2023-05-07T09:53:59;33.63;40.84
51305;HTU21D;37392;50.964;6.952;2023-05-07T09:56:27;33.94;40.76
51305;HTU21D;37392;50.964;6.952;2023-05-07T09:58:56;34.59;39.85
51305;HTU21D;37392;50.964;6.952;2023-05-07T10:01:22;34.89;38.89
51305;HTU21D;37392;50.964;6.952;2023-05-07T10:03:50;34.98;38.91
51305;HTU21D;37392;50.964;6.952;2023-05-07T10:06:16;34.06;39.64
51305;HTU21D;37392;50.964;6.952;2023-05-07T10:08:42;33.92;39.66
51305;HTU21D;37392;50.964;6.952;2023-05-07T10:11:09;33.59;40.10
51305;HTU21D;37392;50.964;6.952;2023-05-07T10:13:35;33.59;40.27
51305;HTU21D;37392;50.964;6.952;2023-05-07T10:16:05;33.73;40.28
51305;HTU21D;37392;50.964;6.952;2023-05-07T10:18:31;33.88;39.72
51305;HTU21D;37392;50.964;6.952;2023-05-07T10:21:06;33.38;40.30
51305;HTU21D;37392;50.964;6.952;2023-05-07T10:23:33;33.03;41.19
51305;HTU21D;37392;50.964;6.952;2023-05-07T10:26:03;32.48;41.42
51305;HTU21D;37392;50.964;6.952;2023-05-07T10:28:30;31.83;42.49
51305;HTU21D;37392;50.964;6.952;2023-05-07T10:33:27;33.26;40.90
51305;HTU21D;37392;50.964;6.952;2023-05-07T10:36:00;34.25;38.90
51305;HTU21D;37392;50.964;6.952;2023-05-07T10:38:29;35.01;38.06
51305;HTU21D;37392;50.964;6.952;2023-05-07T10:40:55;35.30;36.68
51305;HTU21D;37392;50.964;6.952;2023-05-07T10:43:20;35.08;36.25
51305;HTU21D;37392;50.964;6.952;2023-05-07T10:46:08;34.64;37.34
51305;HTU21D;37392;50.964;6.952;2023-05-07T10:48:35;34.36;37.57
51305;HTU21D;37392;50.964;6.952;2023-05-07T10:51:23;33.72;38.65
51305;HTU21D;37392;50.964;6.952;2023-05-07T10:53:55;33.59;38.53
51305;HTU21D;37392;50.964;6.952;2023-05-07T10:56:34;33.26;39.01
51305;HTU21D;37392;50.964;6.952;2023-05-07T10:59:45;33.08;40.06
51305;HTU21D;37392;50.964;6.952;2023-05-07T11:04:23;32.42;39.43
51305;HTU21D;37392;50.964;6.952;2023-05-07T11:12:16;31.40;42.34
51305;HTU21D;37392;50.964;6.952;2023-05-07T11:15:00;32.01;40.55
51305;HTU21D;37392;50.964;6.952;2023-05-07T11:17:26;32.00;40.96
51305;HTU21D;37392;50.964;6.952;2023-05-07T11:19:55;31.35;42.08
51305;HTU21D;37392;50.964;6.952;2023-05-07T11:24:55;31.53;42.50
51305;HTU21D;37392;50.964;6.952;2023-05-07T11:27:24;31.26;41.74
51305;HTU21D;37392;50.964;6.952;2023-05-07T11:29:50;30.74;41.72
51305;HTU21D;37392;50.964;6.952;2023-05-07T11:32:22;30.45;41.28
51305;HTU21D;37392;50.964;6.952;2023-05-07T11:34:51;30.09;41.90
51305;HTU21D;37392;50.964;6.952;2023-05-07T11:37:20;29.66;41.71
51305;HTU21D;37392;50.964;6.952;2023-05-07T11:39:47;29.45;41.80
51305;HTU21D;37392;50.964;6.952;2023-05-07T11:42:28;29.43;41.61
51305;HTU21D;37392;50.964;6.952;2023-05-07T11:44:55;28.97;42.50
51305;HTU21D;37392;50.964;6.952;2023-05-07T11:47:20;28.91;43.13
51305;HTU21D;37392;50.964;6.952;2023-05-07T11:49:47;28.69;43.57
51305;HTU21D;37392;50.964;6.952;2023-05-07T11:52:13;28.56;44.11
51305;HTU21D;37392;50.964;6.952;2023-05-07T11:54:39;28.01;43.92
51305;HTU21D;37392;50.964;6.952;2023-05-07T11:57:05;27.99;44.52
51305;HTU21D;37392;50.964;6.952;2023-05-07T11:59:41;27.97;44.60
51305;HTU21D;37392;50.964;6.952;2023-05-07T12:02:09;27.93;44.75
51305;HTU21D;37392;50.964;6.952;2023-05-07T12:04:35;27.78;45.33
51305;HTU21D;37392;50.964;6.952;2023-05-07T12:07:00;27.94;45.38
51305;HTU21D;37392;50.964;6.952;2023-05-07T12:09:26;27.70;45.75
51305;HTU21D;37392;50.964;6.952;2023-05-07T12:11:52;27.55;45.92
51305;HTU21D;37392;50.964;6.952;2023-05-07T12:14:17;27.85;45.99
51305;HTU21D;37392;50.964;6.952;2023-05-07T12:16:43;27.80;46.66
51305;HTU21D;37392;50.964;6.952;2023-05-07T12:19:09;27.81;45.79
51305;HTU21D;37392;50.964;6.952;2023-05-07T12:21:37;27.61;45.91
51305;HTU21D;37392;50.964;6.952;2023-05-07T12:24:03;27.65;45.73
51305;HTU21D;37392;50.964;6.952;2023-05-07T12:26:30;27.73;46.18
51305;HTU21D;37392;50.964;6.952;2023-05-07T12:28:56;27.72;45.65
51305;HTU21D;37392;50.964;6.952;2023-05-07T12:31:22;27.71;45.90
51305;HTU21D;37392;50.964;6.952;2023-05-07T12:33:48;28.05;45.98
51305;HTU21D;37392;50.964;6.952;2023-05-07T12:36:13;28.26;45.59
51305;HTU21D;37392;50.964;6.952;2023-05-07T12:38:40;28.42;45.87
51305;HTU21D;37392;50.964;6.952;2023-05-07T12:41:06;28.59;45.42
51305;HTU21D;37392;50.964;6.952;2023-05-07T12:43:33;28.40;46.10
51305;HTU21D;37392;50.964;6.952;2023-05-07T12:46:05;28.14;46.06
51305;HTU21D;37392;50.964;6.952;2023-05-07T12:48:31;28.19;46.48
51305;HTU21D;37392;50.964;6.952;2023-05-07T12:50:59;27.89;47.22
51305;HTU21D;37392;50.964;6.952;2023-05-07T12:53:26;27.74;48.96
51305;HTU21D;37392;50.964;6.952;2023-05-07T12:55:55;27.43;51.12
51305;HTU21D;37392;50.964;6.952;2023-05-07T12:58:32;27.10;54.53
51305;HTU21D;37392;50.964;6.952;2023-05-07T13:01:00;26.84;57.47
51305;HTU21D;37392;50.964;6.952;2023-05-07T13:03:28;26.70;59.16
51305;HTU21D;37392;50.964;6.952;2023-05-07T13:05:57;26.49;58.26
51305;HTU21D;37392;50.964;6.952;2023-05-07T13:08:35;26.21;60.34
51305;HTU21D;37392;50.964;6.952;2023-05-07T13:11:04;25.78;59.88
51305;HTU21D;37392;50.964;6.952;2023-05-07T13:13:30;25.42;63.65
51305;HTU21D;37392;50.964;6.952;2023-05-07T13:15:56;25.28;62.43
51305;HTU21D;37392;50.964;6.952;2023-05-07T13:18:21;25.25;62.12
51305;HTU21D;37392;50.964;6.952;2023-05-07T13:20:47;25.30;60.22
51305;HTU21D;37392;50.964;6.952;2023-05-07T13:23:12;25.45;62.09
51305;HTU21D;37392;50.964;6.952;2023-05-07T13:25:38;25.62;71.33
51305;HTU21D;37392;50.964;6.952;2023-05-07T13:28:03;25.53;67.75
51305;HTU21D;37392;50.964;6.952;2023-05-07T13:30:29;25.54;66.91
51305;HTU21D;37392;50.964;6.952;2023-05-07T13:32:55;25.57;64.72
51305;HTU21D;37392;50.964;6.952;2023-05-07T13:35:21;25.62;63.76
51305;HTU21D;37392;50.964;6.952;2023-05-07T13:37:48;25.77;62.15
51305;HTU21D;37392;50.964;6.952;2023-05-07T13:40:14;25.96;61.32
51305;HTU21D;37392;50.964;6.952;2023-05-07T13:42:40;26.19;61.15
51305;HTU21D;37392;50.964;6.952;2023-05-07T13:45:06;26.40;60.01
51305;HTU21D;37392;50.964;6.952;2023-05-07T13:47:32;26.48;59.18
51305;HTU21D;37392;50.964;6.952;2023-05-07T13:49:57;26.54;58.37
51305;HTU21D;37392;50.964;6.952;2023-05-07T13:52:23;26.63;57.39
51305;HTU21D;37392;50.964;6.952;2023-05-07T13:54:48;26.66;56.68
51305;HTU21D;37392;50.964;6.952;2023-05-07T13:57:14;26.79;56.08
51305;HTU21D;37392;50.964;6.952;2023-05-07T13:59:40;26.60;55.10
51305;HTU21D;37392;50.964;6.952;2023-05-07T14:02:06;26.45;55.26
51305;HTU21D;37392;50.964;6.952;2023-05-07T14:04:31;26.72;56.39
51305;HTU21D;37392;50.964;6.952;2023-05-07T14:06:57;26.79;56.32
51305;HTU21D;37392;50.964;6.952;2023-05-07T14:09:22;26.78;57.51
51305;HTU21D;37392;50.964;6.952;2023-05-07T14:11:48;26.60;59.87
51305;HTU21D;37392;50.964;6.952;2023-05-07T14:14:16;26.47;61.94
51305;HTU21D;37392;50.964;6.952;2023-05-07T14:16:42;26.39;60.64
51305;HTU21D;37392;50.964;6.952;2023-05-07T14:19:08;26.30;58.67
51305;HTU21D;37392;50.964;6.952;2023-05-07T14:21:33;26.39;58.32
51305;HTU21D;37392;50.964;6.952;2023-05-07T14:23:58;26.48;57.52
51305;HTU21D;37392;50.964;6.952;2023-05-07T14:26:25;26.58;57.09
51305;HTU21D;37392;50.964;6.952;2023-05-07T14:28:52;26.68;56.36
51305;HTU21D;37392;50.964;6.952;2023-05-07T14:31:20;26.85;55.74
51305;HTU21D;37392;50.964;6.952;2023-05-07T14:33:46;26.79;56.64
51305;HTU21D;37392;50.964;6.952;2023-05-07T14:36:11;26.78;57.91
51305;HTU21D;37392;50.964;6.952;2023-05-07T14:38:37;26.94;58.49
51305;HTU21D;37392;50.964;6.952;2023-05-07T14:41:03;26.86;59.17
51305;HTU21D;37392;50.964;6.952;2023-05-07T14:43:28;26.63;59.42
51305;HTU21D;37392;50.964;6.952;2023-05-07T14:45:54;26.60;59.05
51305;HTU21D;37392;50.964;6.952;2023-05-07T14:48:19;26.45;58.99
51305;HTU21D;37392;50.964;6.952;2023-05-07T14:50:46;26.21;59.67
51305;HTU21D;37392;50.964;6.952;2023-05-07T14:53:12;25.65;60.54
51305;HTU21D;37392;50.964;6.952;2023-05-07T14:55:37;25.21;62.29
51305;HTU21D;37392;50.964;6.952;2023-05-07T14:58:03;24.97;63.92
51305;HTU21D;37392;50.964;6.952;2023-05-07T15:00:28;24.69;64.96
51305;HTU21D;37392;50.964;6.952;2023-05-07T15:02:55;24.46;65.75
51305;HTU21D;37392;50.964;6.952;2023-05-07T15:05:34;24.40;64.14
51305;HTU21D;37392;50.964;6.952;2023-05-07T15:08:00;24.15;64.37
51305;HTU21D;37392;50.964;6.952;2023-05-07T15:10:26;24.26;64.30
51305;HTU21D;37392;50.964;6.952;2023-05-07T15:12:51;24.33;63.91
51305;HTU21D;37392;50.964;6.952;2023-05-07T15:15:17;24.21;63.95
51305;HTU21D;37392;50.964;6.952;2023-05-07T15:17:43;23.83;64.98
51305;HTU21D;37392;50.964;6.952;2023-05-07T15:20:08;23.72;65.80
51305;HTU21D;37392;50.964;6.952;2023-05-07T15:22:35;23.51;66.22